createdAt,value
2023-01-03T14:39:56.992Z,80.6
2023-01-03T14:40:56.990Z,80.9
2023-01-03T14:41:56.982Z,81.4
2023-01-03T14:42:56.986Z,81.4
2023-01-03T14:43:57.010Z,81.9
2023-01-03T14:45:56.984Z,82.2
2023-01-03T14:46:57.096Z,82.1
2023-01-03T14:47:56.983Z,82.5
2023-01-03T14:49:02.970Z,82.7
2023-01-03T14:49:56.968Z,82.8
2023-01-03T14:50:56.973Z,82.6
2023-01-03T14:51:56.986Z,82.2
2023-01-03T14:53:57.006Z,82.1
2023-01-03T14:55:03.477Z,82.3
2023-01-03T14:55:56.975Z,82.5
2023-01-03T14:56:56.976Z,81.5
2023-01-03T14:57:56.989Z,81.8
2023-01-03T14:58:56.978Z,81.6
2023-01-03T14:59:56.985Z,81.4
2023-01-03T15:00:57.039Z,80.6
2023-01-03T15:01:57.209Z,79.3
2023-01-03T15:02:57.186Z,78.9
2023-01-03T15:03:56.989Z,79
2023-01-03T15:04:56.984Z,79.4
2023-01-03T15:05:56.969Z,79.3
2023-01-03T15:07:02.314Z,79.7
2023-01-03T15:07:56.986Z,80.1
2023-01-03T15:08:56.979Z,80.5
2023-01-03T15:09:56.975Z,79.9
2023-01-03T15:10:56.981Z,79.8
2023-01-03T15:11:57.186Z,80.2
2023-01-03T15:13:02.557Z,80.7
2023-01-03T15:13:57.023Z,80.5
2023-01-03T15:14:56.993Z,80.4
2023-01-03T15:15:57.059Z,80.4
2023-01-03T15:16:57.100Z,80.1
2023-01-03T15:17:56.983Z,80.2
2023-01-03T15:18:56.997Z,80.6
2023-01-03T15:19:57.010Z,80.4
2023-01-03T15:20:56.984Z,80.6
2023-01-03T15:21:56.992Z,80.9
2023-01-03T15:22:56.992Z,80.6
2023-01-03T15:23:56.991Z,80.6
2023-01-03T15:24:56.990Z,80.9
2023-01-03T15:25:57.035Z,80.8
2023-01-03T15:26:57.000Z,80.7
2023-01-03T15:27:57.001Z,80
2023-01-03T15:28:57.036Z,80.6
2023-01-03T15:30:57.006Z,80.9
2023-01-03T15:31:57.095Z,81.1
2023-01-03T15:32:57.002Z,81.2
2023-01-03T15:33:57.039Z,80.8
2023-01-03T15:34:56.995Z,80.9
2023-01-03T15:35:56.995Z,81
2023-01-03T15:36:56.992Z,80.7
2023-01-03T15:37:56.984Z,80.9
2023-01-03T15:38:57.024Z,80.8
2023-01-03T15:39:56.983Z,81
2023-01-03T15:40:56.985Z,81.3
2023-01-03T15:42:19.541Z,81.4
2023-01-03T15:42:58.632Z,81.3
2023-01-03T15:43:57.050Z,81.5
2023-01-03T15:44:56.986Z,81.2
2023-01-03T15:45:57.037Z,81.3
2023-01-03T15:46:57.044Z,81.2
2023-01-03T15:47:56.984Z,81.1
2023-01-03T15:48:57.002Z,81.5
2023-01-03T15:49:57.002Z,81.8
2023-01-03T15:50:57.015Z,81.6
2023-01-03T15:51:56.988Z,81.9
2023-01-03T15:52:56.998Z,81.9
2023-01-03T15:53:57.007Z,82.1
2023-01-03T15:54:56.995Z,81.9
2023-01-03T15:55:57.001Z,82.3
2023-01-03T15:56:56.992Z,82.2
2023-01-03T15:57:57.000Z,82.6
2023-01-03T15:58:57.038Z,82.8
2023-01-03T15:59:57.015Z,83.1
2023-01-03T16:00:57.086Z,83.3
2023-01-03T16:01:57.167Z,83.1
2023-01-03T16:02:57.173Z,83
2023-01-03T16:03:57.077Z,83.1
2023-01-03T16:04:57.041Z,83.1
2023-01-03T16:05:56.993Z,83.1
2023-01-03T16:06:56.995Z,83
2023-01-03T16:07:56.994Z,83.1
2023-01-03T16:08:57.006Z,83.2
2023-01-03T16:09:57.295Z,83
2023-01-03T16:10:56.996Z,83
2023-01-03T16:11:57.003Z,83.3
2023-01-03T16:12:57.012Z,83.3
2023-01-03T16:13:57.001Z,83.6
2023-01-03T16:14:57.020Z,83.5
2023-01-03T16:15:57.020Z,83.6
2023-01-03T16:16:57.181Z,84
2023-01-03T16:17:57.022Z,84
2023-01-03T16:18:57.026Z,84
2023-01-03T16:19:56.998Z,84.2
2023-01-03T16:20:56.996Z,83.8
2023-01-03T16:22:32.553Z,83.8
2023-01-03T16:23:00.923Z,83.3
2023-01-03T16:23:57.004Z,83.7
2023-01-03T16:24:56.993Z,83.9
2023-01-03T16:25:56.997Z,84
2023-01-03T16:26:57.009Z,84.7
2023-01-03T16:27:57.000Z,84.3
2023-01-03T16:28:56.994Z,84.3
2023-01-03T16:29:56.999Z,84.5
2023-01-03T16:30:56.993Z,84.5
2023-01-03T16:31:57.088Z,84.6
2023-01-03T16:32:57.002Z,84.4
2023-01-03T16:33:56.998Z,84.4
2023-01-03T16:34:57.008Z,84.1
2023-01-03T16:35:57.052Z,84.3
2023-01-03T16:36:57.017Z,84.1
2023-01-03T16:37:57.018Z,84.3
2023-01-03T16:38:57.007Z,84.4
2023-01-03T16:39:57.032Z,84.5
2023-01-03T16:40:57.008Z,84.9
2023-01-03T16:41:57.007Z,84.7
2023-01-03T16:42:57.000Z,84.7
2023-01-03T16:43:57.018Z,84.5
2023-01-03T16:44:57.080Z,84.8
2023-01-03T16:45:57.052Z,84.4
2023-01-03T16:46:57.028Z,84.6
2023-01-03T16:47:57.006Z,84.9
2023-01-03T16:48:57.016Z,85.3
2023-01-03T16:49:57.105Z,84.9
2023-01-03T16:50:57.036Z,85
2023-01-03T16:51:57.926Z,85.3
2023-01-03T16:52:57.018Z,84.8
2023-01-03T16:53:57.022Z,84.8
2023-01-03T16:54:57.022Z,84.9
2023-01-03T16:55:57.020Z,84.8
2023-01-03T16:56:57.024Z,84.7
2023-01-03T16:57:57.023Z,85.1
2023-01-03T16:58:57.014Z,84.8
2023-01-03T16:59:57.106Z,84.8
2023-01-03T17:00:57.038Z,84.5
2023-01-03T17:01:57.206Z,84.6
2023-01-03T17:02:57.267Z,84.7
2023-01-03T17:03:57.115Z,84.6
2023-01-03T17:04:57.011Z,84.4
2023-01-03T17:05:57.008Z,84.5
2023-01-03T17:06:57.025Z,84.6
2023-01-03T17:07:57.022Z,84.7
2023-01-03T17:08:57.010Z,84.8
2023-01-03T17:09:57.079Z,84.6
2023-01-03T17:10:57.000Z,84.8
2023-01-03T17:11:57.020Z,84.8
2023-01-03T17:12:57.023Z,85.3
2023-01-03T17:13:57.007Z,85.1
2023-01-03T17:14:57.018Z,85.3
2023-01-03T17:15:57.026Z,85.3
2023-01-03T17:16:57.150Z,85.5
2023-01-03T17:17:57.010Z,86.2
2023-01-03T17:18:57.022Z,86
2023-01-03T17:20:06.020Z,86.2
2023-01-03T17:20:57.071Z,86.4
2023-01-03T17:21:57.018Z,86
2023-01-03T17:22:57.024Z,86.2
2023-01-03T17:23:57.017Z,85.7
2023-01-03T17:24:57.021Z,86.1
2023-01-03T17:25:57.017Z,86.1
2023-01-03T17:26:57.018Z,86.1
2023-01-03T17:27:57.022Z,85.7
2023-01-03T17:28:57.012Z,85.4
2023-01-03T17:29:57.025Z,85.3
2023-01-03T17:30:57.141Z,85.3
2023-01-03T17:31:57.039Z,85.2
2023-01-03T17:32:57.030Z,84.8
2023-01-03T17:33:57.022Z,84.8
2023-01-03T17:34:57.058Z,84.5
2023-01-03T17:35:57.023Z,84.3
2023-01-03T17:36:57.034Z,84.3
2023-01-03T17:38:57.049Z,83.7
2023-01-03T17:39:57.292Z,83.4
2023-01-03T17:40:57.042Z,83.4
2023-01-03T17:41:57.067Z,83.5
2023-01-03T17:42:57.018Z,83.4
2023-01-03T17:43:57.018Z,83.5
2023-01-03T17:44:57.027Z,83.3
2023-01-03T17:45:57.138Z,83.2
2023-01-03T17:46:57.148Z,83
2023-01-03T17:47:57.016Z,82.9
2023-01-03T17:48:57.045Z,83.2
2023-01-03T17:49:57.021Z,83.1
2023-01-03T17:50:57.045Z,83
2023-01-03T17:51:57.055Z,82.6
2023-01-03T17:52:57.044Z,82.7
2023-01-03T17:53:57.039Z,82.5
2023-01-03T17:54:57.021Z,82.5
2023-01-03T17:55:57.043Z,82.8
2023-01-03T17:56:57.049Z,82.8
2023-01-03T17:57:57.064Z,82.8
2023-01-03T17:58:57.094Z,82.5
2023-01-03T17:59:57.030Z,82.7
2023-01-03T18:00:57.056Z,82.5
2023-01-03T18:01:57.178Z,82.7
2023-01-03T18:02:57.333Z,82.4
2023-01-03T18:03:57.140Z,82.3
2023-01-03T18:05:27.712Z,82.4
2023-01-03T18:05:57.033Z,82.3
2023-01-03T18:06:57.035Z,82.1
2023-01-03T18:07:57.052Z,81.9
2023-01-03T18:08:57.098Z,82.1
2023-01-03T18:09:57.040Z,81.9
2023-01-03T18:10:57.049Z,82
2023-01-03T18:11:57.044Z,81.9
2023-01-03T18:12:57.019Z,81.9
2023-01-03T18:13:57.050Z,81.7
2023-01-03T18:14:57.031Z,81.7
2023-01-03T18:15:57.145Z,81.8
2023-01-03T18:16:57.030Z,81.4
2023-01-03T18:17:57.042Z,81.3
2023-01-03T18:18:57.055Z,81.4
2023-01-03T18:19:57.044Z,81.5
2023-01-03T18:20:57.032Z,81.5
2023-01-03T18:21:57.041Z,81.3
2023-01-03T18:22:57.053Z,81
2023-01-03T18:23:57.042Z,81
2023-01-03T18:24:57.062Z,80.9
2023-01-03T18:25:57.056Z,81.2
2023-01-03T18:26:57.066Z,81.3
2023-01-03T18:27:57.060Z,80.7
2023-01-03T18:28:57.052Z,80.7
2023-01-03T18:29:57.104Z,80.8
2023-01-03T18:30:57.179Z,80.9
2023-01-03T18:31:57.047Z,80.9
2023-01-03T18:32:57.056Z,80.7
2023-01-03T18:33:57.072Z,80.8
2023-01-03T18:34:57.068Z,80.9
2023-01-03T18:35:57.050Z,80.8
2023-01-03T18:36:57.072Z,80.6
2023-01-03T18:37:57.047Z,80.6
2023-01-03T18:38:57.039Z,81
2023-01-03T18:39:57.067Z,80.8
2023-01-03T18:41:03.997Z,80.7
2023-01-03T18:41:57.044Z,81
2023-01-03T18:42:57.041Z,81
2023-01-03T18:43:57.056Z,81
2023-01-03T18:44:57.055Z,80.8
2023-01-03T18:45:57.188Z,80.7
2023-01-03T18:46:57.145Z,80.9
2023-01-03T18:47:57.058Z,80.4
2023-01-03T18:48:57.071Z,80.5
2023-01-03T18:49:57.079Z,80.5
2023-01-03T18:50:59.352Z,80.5
2023-01-03T18:51:57.078Z,80.4
2023-01-03T18:52:57.042Z,80.5
2023-01-03T18:53:57.041Z,80.1
2023-01-03T18:54:57.050Z,80.2
2023-01-03T18:55:57.052Z,80.1
2023-01-03T18:56:57.049Z,80.4
2023-01-03T18:57:57.039Z,80.5
2023-01-03T18:59:01.932Z,80.2
2023-01-03T18:59:57.046Z,79.7
2023-01-03T19:00:57.056Z,80
2023-01-03T19:01:57.201Z,80.3
2023-01-03T19:02:57.371Z,80.1
2023-01-03T19:03:57.154Z,80.3
2023-01-03T19:04:57.057Z,80.4
2023-01-03T19:05:57.070Z,80.1
2023-01-03T19:06:57.056Z,80.4
2023-01-03T19:07:57.098Z,80.4
2023-01-03T19:08:57.050Z,80.2
2023-01-03T19:09:57.048Z,80.5
2023-01-03T19:10:57.070Z,80.6
2023-01-03T19:11:57.055Z,80.4
2023-01-03T19:12:57.058Z,80.4
2023-01-03T19:13:57.064Z,80.2
2023-01-03T19:14:57.081Z,80.2
2023-01-03T19:15:57.133Z,80.4
2023-01-03T19:16:57.046Z,80.4
2023-01-03T19:17:57.115Z,80.9
2023-01-03T19:18:57.046Z,80.7
2023-01-03T19:19:57.061Z,80.9
2023-01-03T19:20:57.057Z,80.8
2023-01-03T19:21:57.055Z,81.2
2023-01-03T19:22:57.055Z,81
2023-01-03T19:23:57.036Z,80.7
2023-01-03T19:24:57.047Z,80.8
2023-01-03T19:25:57.056Z,80.5
2023-01-03T19:26:57.050Z,80.5
2023-01-03T19:27:57.065Z,80.9
2023-01-03T19:28:57.075Z,81.1
2023-01-03T19:29:57.045Z,80.9
2023-01-03T19:30:57.195Z,81
2023-01-03T19:31:57.069Z,80.6
2023-01-03T19:32:57.048Z,80.7
2023-01-03T19:33:57.067Z,80.6
2023-01-03T19:34:57.049Z,80.5
2023-01-03T19:35:57.074Z,80.8
2023-01-03T19:36:57.091Z,80.2
2023-01-03T19:37:57.050Z,80.4
2023-01-03T19:38:57.105Z,80.4
2023-01-03T19:39:57.061Z,80
2023-01-03T19:40:57.060Z,79.9
2023-01-03T19:41:57.088Z,80.2
2023-01-03T19:42:57.069Z,80.3
2023-01-03T19:43:57.074Z,80.2
2023-01-03T19:44:57.067Z,80.4
2023-01-03T19:45:57.146Z,80.3
2023-01-03T19:46:57.117Z,80
2023-01-03T19:47:57.082Z,80.1
2023-01-03T19:48:57.055Z,80.4
2023-01-03T19:49:57.083Z,80.3
2023-01-03T19:50:57.079Z,80.3
2023-01-03T19:51:57.078Z,80.1
2023-01-03T19:52:57.067Z,80.2
2023-01-03T19:53:57.074Z,80.1
2023-01-03T19:54:57.063Z,80.1
2023-01-03T19:55:57.061Z,79.9
2023-01-03T19:56:57.055Z,79.9
2023-01-03T19:57:57.061Z,79.8
2023-01-03T19:59:02.933Z,80.1
2023-01-03T19:59:57.077Z,80.1
2023-01-03T20:00:57.068Z,79.9
2023-01-03T20:02:57.364Z,79.9
2023-01-03T20:03:57.245Z,79.7
2023-01-03T20:04:57.365Z,79.6
2023-01-03T20:05:57.131Z,79.6
2023-01-03T20:06:57.087Z,79.4
2023-01-03T20:07:57.067Z,79.9
2023-01-03T20:08:57.074Z,79.7
2023-01-03T20:09:57.095Z,79.6
2023-01-03T20:10:57.079Z,79.9
2023-01-03T20:11:57.059Z,80
2023-01-03T20:12:57.095Z,80
2023-01-03T20:13:57.050Z,80
2023-01-03T20:15:02.945Z,80.1
2023-01-03T20:15:57.112Z,80.1
2023-01-03T20:16:57.055Z,79.9
2023-01-03T20:17:57.080Z,80
2023-01-03T20:18:57.058Z,79.8
2023-01-03T20:19:57.077Z,79.8
2023-01-03T20:20:57.075Z,80
2023-01-03T20:21:57.066Z,80.1
2023-01-03T20:23:06.372Z,80.1
2023-01-03T20:23:57.104Z,79.9
2023-01-03T20:24:57.061Z,79.9
2023-01-03T20:25:57.072Z,79.9
2023-01-03T20:26:57.058Z,80.1
2023-01-03T20:27:57.063Z,80.1
2023-01-03T20:28:57.073Z,80.1
2023-01-03T20:29:57.091Z,80.1
2023-01-03T20:30:57.092Z,80.1
2023-01-03T20:31:57.204Z,79.7
2023-01-03T20:32:57.094Z,80
2023-01-03T20:33:57.065Z,80.1
2023-01-03T20:34:57.118Z,79.9
2023-01-03T20:36:19.998Z,80.1
2023-01-03T20:36:57.085Z,79.9
2023-01-03T20:37:57.068Z,79.8
2023-01-03T20:38:57.078Z,79.6
2023-01-03T20:39:57.088Z,80.2
2023-01-03T20:40:57.066Z,80
2023-01-03T20:42:03.154Z,80.3
2023-01-03T20:42:57.073Z,80.4
2023-01-03T20:43:57.089Z,80.2
2023-01-03T20:44:57.132Z,80.7
2023-01-03T20:45:57.072Z,80.6
2023-01-03T20:46:57.124Z,80.8
2023-01-03T20:47:57.075Z,80.7
2023-01-03T20:48:57.124Z,80.4
2023-01-03T20:49:57.071Z,80.4
2023-01-03T20:50:57.089Z,80.2
2023-01-03T20:51:57.083Z,80.5
2023-01-03T20:52:57.095Z,80.3
2023-01-03T20:53:57.105Z,80.6
2023-01-03T20:54:57.086Z,80.5
2023-01-03T20:55:57.084Z,80.6
2023-01-03T20:59:57.098Z,80.5
2023-01-03T21:01:04.682Z,80.8
2023-01-03T21:01:57.272Z,80.8
2023-01-03T21:02:57.247Z,80.7
2023-01-03T21:04:07.364Z,80.5
2023-01-03T21:05:07.361Z,80.5
2023-01-03T21:06:07.377Z,80.6
2023-01-03T21:06:57.070Z,80.5
2023-01-03T21:07:57.089Z,80.6
2023-01-03T21:08:57.199Z,80.6
2023-01-03T21:09:57.077Z,80.7
2023-01-03T23:23:31.112Z,83
2023-01-03T23:40:49.035Z,83.5
2023-01-03T23:58:06.981Z,83
